Sunday, December 17, 2017, 4:10 PM EST
Back to Local

KMFD, Lahm Municipal Airport

Location: Mansfield, OH, United States Lat: 40.817
Local Time: 4:10 PM EST (21:10 GMT) Lon: -82.517
Time Zone: US/Eastern Elev: 1295 ft

Show me the last for .
Show Coded

Time T Td Feel RH Dir Speed Gust Alt SLP Vis Weather Sky Remarks
2017-12-17 15:52 36 33 30 89 190° 7 - 30.09 30.13 6 -RA BR OVC050 1-hr Precip Total: 0.03"
6-hr Precip Total (4pm): 0.05"
2017-12-17 14:52 37 33 31 85 210° 8 - 30.10 30.13 7 UP BKN049 OVC065 1-hr Precip Total: 0.02"
2017-12-17 13:52 39 31 34 72 200° 7 - 30.08 30.11 10 BKN075 OVC100 None
2017-12-17 12:52 39 30 37 69 180° 3 - 30.09 30.12 10 CLR 6-hr Min Temp (1pm): 30.9°F
6-hr Max Temp (1pm): 39.0°F
2017-12-17 11:52 38 30 33 72 160° 6 - 30.11 30.14 10 CLR None
2017-12-17 10:52 37 30 32 75 190° 7 - 30.15 30.19 10 CLR None
2017-12-17 09:52 36 29 30 75 190° 8 - 30.16 30.19 10 CLR None
2017-12-17 08:52 34 29 27 81 200° 9 - 30.17 30.20 10 CLR Pressure rising rapidly
2017-12-17 07:52 32 28 24 85 190° 9 - 30.14 30.18 10 CLR None
2017-12-17 06:52 32 26 26 78 190° 7 - 30.14 30.18 10 CLR 6-hr Min Temp (7am): 30.0°F
6-hr Max Temp (7am): 36.0°F
2017-12-17 05:52 31 26 23 81 190° 9 - 30.15 30.18 10 CLR None
2017-12-17 04:52 30 25 22 81 190° 8 - 30.14 30.17 10 CLR None
2017-12-17 03:52 30 25 23 81 190° 7 - 30.13 30.16 10 CLR None
2017-12-17 02:52 33 25 26 71 210° 8 - 30.13 30.16 10 CLR None
2017-12-17 01:52 34 26 28 72 220° 7 - 30.12 30.15 10 CLR None
2017-12-17 00:52 36 27 30 69 220° 8 - 30.13 30.16 10 CLR 6-hr Min Temp (1am): 28.0°F
6-hr Max Temp (1am): 37.9°F
2017-12-16 23:52 33 25 28 71 210° 6 - 30.12 30.15 10 CLR 24-hr Min Temp (12am): 27.0°F
24-hr Max Temp (12am): 42.1°F
2017-12-16 22:52 30 24 25 78 190° 5 - 30.11 30.15 10 CLR None
2017-12-16 21:52 31 25 25 78 190° 6 - 30.10 30.13 10 CLR None
2017-12-16 20:52 31 25 25 78 180° 6 - 30.08 30.12 10 CLR None
2017-12-16 19:52 34 26 29 72 180° 6 - 30.08 30.11 10 CLR None
2017-12-16 18:52 37 27 33 66 200° 5 - 30.06 30.10 10 CLR 6-hr Min Temp (7pm): 35.1°F
6-hr Max Temp (7pm): 42.1°F
2017-12-16 17:52 38 27 33 64 190° 6 - 30.04 30.07 10 CLR None
2017-12-16 16:52 39 28 35 64 210° 6 - 30.01 30.04 10 CLR None

Support USWX by starting your Amazon purchase here.